createdAt,value
2022-09-07T00:01:15.743Z,21.30
2022-09-07T00:03:44.830Z,21.30
2022-09-07T00:06:17.258Z,21.40
2022-09-07T00:08:44.349Z,21.40
2022-09-07T00:11:15.304Z,21.40
2022-09-07T00:13:49.336Z,21.40
2022-09-07T00:16:30.086Z,21.40
2022-09-07T00:19:00.273Z,21.40
2022-09-07T00:21:30.302Z,21.40
2022-09-07T00:23:58.497Z,21.40
2022-09-07T00:26:29.122Z,21.40
2022-09-07T00:29:02.014Z,21.40
2022-09-07T00:31:30.306Z,21.40
2022-09-07T00:34:02.387Z,21.40
2022-09-07T00:36:34.506Z,21.40
2022-09-07T00:39:04.548Z,21.30
2022-09-07T00:41:31.801Z,21.30
2022-09-07T00:44:38.778Z,21.30
2022-09-07T00:47:21.406Z,21.30
2022-09-07T00:49:56.752Z,21.30
2022-09-07T00:52:26.397Z,21.30
2022-09-07T00:55:01.262Z,21.30
2022-09-07T00:57:31.309Z,21.30
2022-09-07T00:59:59.217Z,21.30
2022-09-07T01:02:29.041Z,21.30
2022-09-07T01:05:18.707Z,21.30
2022-09-07T01:07:46.842Z,21.30
2022-09-07T01:10:14.332Z,21.30
2022-09-07T01:12:43.536Z,21.30
2022-09-07T01:15:10.977Z,21.30
2022-09-07T01:17:55.849Z,21.30
2022-09-07T01:20:43.097Z,21.20
2022-09-07T01:24:03.518Z,21.20
2022-09-07T01:27:08.655Z,21.20
2022-09-07T01:29:59.691Z,21.10
2022-09-07T01:33:30.286Z,21.10
2022-09-07T01:36:23.149Z,21.10
2022-09-07T01:39:03.256Z,21.10
2022-09-07T01:41:44.220Z,21.10
2022-09-07T01:44:18.379Z,21.10
2022-09-07T01:47:14.087Z,21.10
2022-09-07T01:50:23.863Z,21.10
2022-09-07T01:53:28.520Z,21.00
2022-09-07T01:56:15.032Z,21.00
2022-09-07T01:58:58.405Z,21.00
2022-09-07T02:01:41.499Z,21.00
2022-09-07T02:04:38.638Z,21.00
2022-09-07T02:07:27.533Z,21.00
2022-09-07T02:10:22.224Z,20.90
2022-09-07T02:13:06.842Z,21.00
2022-09-07T02:15:49.434Z,20.90
2022-09-07T02:18:19.216Z,20.90
2022-09-07T02:20:54.352Z,20.90
2022-09-07T02:23:31.870Z,20.90
2022-09-07T02:26:06.106Z,20.90
2022-09-07T02:28:36.054Z,20.90
2022-09-07T02:31:03.203Z,20.80
2022-09-07T02:33:30.824Z,20.80
2022-09-07T02:35:58.447Z,20.80
2022-09-07T02:38:26.027Z,20.80
2022-09-07T02:40:55.751Z,20.80
2022-09-07T02:43:25.019Z,20.70
2022-09-07T02:46:24.996Z,20.70
2022-09-07T02:49:27.079Z,20.70
2022-09-07T02:52:27.623Z,20.70
2022-09-07T02:55:42.969Z,20.70
2022-09-07T02:58:43.330Z,20.60
2022-09-07T03:01:51.149Z,20.60
2022-09-07T03:04:30.114Z,20.60
2022-09-07T03:07:10.382Z,20.60
2022-09-07T03:09:45.989Z,20.60
2022-09-07T03:12:13.057Z,20.60
2022-09-07T03:14:42.139Z,20.60
2022-09-07T03:17:09.604Z,20.60
2022-09-07T03:19:37.350Z,20.50
2022-09-07T03:22:05.995Z,20.50
2022-09-07T03:24:33.433Z,20.50
2022-09-07T03:27:01.134Z,20.50
2022-09-07T03:29:28.136Z,20.50
2022-09-07T03:31:55.211Z,20.40
2022-09-07T03:34:22.180Z,20.40
2022-09-07T03:36:49.124Z,20.40
2022-09-07T03:39:16.169Z,20.40
2022-09-07T03:41:43.152Z,20.40
2022-09-07T03:44:12.761Z,20.40
2022-09-07T03:46:39.759Z,20.40
2022-09-07T03:49:09.742Z,20.40
2022-09-07T03:51:36.662Z,20.40
2022-09-07T03:54:06.355Z,20.40
2022-09-07T03:56:35.908Z,20.40
2022-09-07T03:59:05.853Z,20.40
2022-09-07T04:01:36.307Z,20.40
2022-09-07T04:04:05.778Z,20.40
2022-09-07T04:09:19.078Z,20.30
2022-09-07T04:11:46.146Z,20.30
2022-09-07T04:14:13.110Z,20.30
2022-09-07T04:16:40.203Z,20.30
2022-09-07T04:19:07.206Z,20.20
2022-09-07T04:21:34.644Z,20.20
2022-09-07T04:24:01.734Z,20.20
2022-09-07T04:26:32.302Z,20.20
2022-09-07T04:29:03.782Z,20.10
2022-09-07T04:31:33.548Z,20.10
2022-09-07T04:34:00.541Z,19.90
2022-09-07T04:36:28.202Z,20.00
2022-09-07T04:39:03.343Z,20.10
2022-09-07T04:41:32.618Z,20.10
2022-09-07T04:44:02.948Z,20.10
2022-09-07T04:46:36.567Z,20.00
2022-09-07T04:49:11.839Z,20.00
2022-09-07T04:51:44.961Z,20.00
2022-09-07T04:54:14.301Z,20.00
2022-09-07T04:56:43.830Z,20.00
2022-09-07T04:59:13.126Z,20.00
2022-09-07T05:01:44.579Z,20.00
2022-09-07T05:04:13.677Z,20.00
2022-09-07T05:06:40.612Z,19.80
2022-09-07T05:09:12.956Z,20.00
2022-09-07T05:11:39.884Z,20.00
2022-09-07T05:14:08.088Z,20.10
2022-09-07T05:16:41.908Z,20.10
2022-09-07T05:19:15.107Z,20.10
2022-09-07T05:21:44.661Z,20.10
2022-09-07T05:24:11.569Z,20.10
2022-09-07T05:26:39.811Z,20.10
2022-09-07T05:31:57.579Z,20.10
2022-09-07T05:36:54.776Z,20.10
2022-09-07T05:39:24.727Z,20.10
2022-09-07T05:41:51.626Z,20.10
2022-09-07T05:47:08.306Z,20.10
2022-09-07T05:49:38.287Z,20.10
2022-09-07T05:52:10.452Z,20.20
2022-09-07T05:54:40.641Z,20.20
2022-09-07T05:57:11.186Z,20.20
2022-09-07T05:59:38.102Z,20.20
2022-09-07T06:02:09.492Z,20.20
2022-09-07T06:04:36.388Z,20.20
2022-09-07T06:07:21.935Z,20.00
2022-09-07T06:12:36.369Z,20.20
2022-09-07T06:15:05.267Z,20.20
2022-09-07T06:17:32.150Z,20.20
2022-09-07T06:19:59.138Z,20.30
2022-09-07T06:22:31.038Z,20.30
2022-09-07T06:24:58.723Z,20.30
2022-09-07T06:27:28.735Z,20.40
2022-09-07T06:29:56.036Z,20.40
2022-09-07T06:35:10.871Z,20.50
2022-09-07T06:37:38.458Z,20.50
2022-09-07T06:40:11.834Z,20.60
2022-09-07T06:42:39.306Z,20.60
2022-09-07T06:45:11.288Z,20.70
2022-09-07T06:47:41.322Z,20.70
2022-09-07T06:50:09.439Z,20.80
2022-09-07T06:55:27.954Z,21.00
2022-09-07T06:57:57.484Z,21.00
2022-09-07T07:00:24.652Z,21.10
2022-09-07T07:02:56.488Z,21.20
2022-09-07T07:05:25.712Z,21.30
2022-09-07T07:07:52.708Z,21.40
2022-09-07T07:10:24.331Z,21.40
2022-09-07T07:12:56.659Z,21.50
2022-09-07T07:15:27.384Z,21.60
2022-09-07T07:18:00.311Z,21.60
2022-09-07T07:20:35.282Z,21.80
2022-09-07T07:23:02.732Z,21.80
2022-09-07T07:25:29.822Z,21.90
2022-09-07T07:27:57.105Z,22.10
2022-09-07T07:30:24.945Z,22.20
2022-09-07T07:32:54.653Z,22.30
2022-09-07T07:35:23.314Z,22.40
2022-09-07T07:40:43.055Z,22.70
2022-09-07T07:43:15.340Z,22.90
2022-09-07T07:48:21.431Z,23.30
2022-09-07T07:51:11.825Z,23.50
2022-09-07T07:53:52.920Z,23.70
2022-09-07T07:56:19.977Z,23.90
2022-09-07T07:58:48.084Z,24.20
2022-09-07T08:01:17.551Z,24.40
2022-09-07T08:03:47.242Z,24.70
2022-09-07T08:06:20.008Z,25.00
2022-09-07T08:08:51.481Z,25.30
2022-09-07T08:11:25.859Z,25.60
2022-09-07T08:13:54.818Z,25.90
2022-09-07T08:16:24.352Z,26.20
2022-09-07T08:18:51.411Z,26.40
2022-09-07T08:21:18.293Z,26.50
2022-09-07T08:23:45.265Z,26.70
2022-09-07T08:26:12.330Z,26.90
2022-09-07T08:28:41.949Z,27.10
2022-09-07T08:31:15.735Z,27.40
2022-09-07T08:33:45.868Z,27.60
2022-09-07T08:36:19.579Z,27.80
2022-09-07T08:38:47.776Z,28.00
2022-09-07T08:41:54.787Z,28.20
2022-09-07T08:44:22.589Z,28.30
2022-09-07T08:47:03.644Z,28.60
2022-09-07T08:49:36.320Z,28.80
2022-09-07T08:52:12.734Z,28.70
2022-09-07T08:54:49.748Z,29.10
2022-09-07T08:57:27.786Z,29.30
2022-09-07T09:00:14.388Z,29.40
2022-09-07T09:02:44.350Z,29.50
2022-09-07T09:05:25.744Z,29.60
2022-09-07T09:08:22.757Z,29.70
2022-09-07T09:11:10.922Z,29.80
2022-09-07T09:13:49.542Z,29.80
2022-09-07T09:16:38.138Z,29.80
2022-09-07T09:19:41.460Z,29.70
2022-09-07T09:22:22.051Z,29.70
2022-09-07T09:25:16.711Z,29.70
2022-09-07T09:27:43.688Z,29.70
2022-09-07T09:30:21.422Z,29.90
2022-09-07T09:32:52.798Z,30.00
2022-09-07T09:35:51.217Z,30.30
2022-09-07T09:38:40.740Z,30.40
2022-09-07T09:41:15.882Z,30.70
2022-09-07T09:43:54.453Z,31.00
2022-09-07T09:46:40.148Z,31.20
2022-09-07T09:49:26.158Z,31.50
2022-09-07T09:54:52.568Z,31.80
2022-09-07T09:59:04.718Z,31.80
2022-09-07T10:01:21.029Z,31.80
2022-09-07T10:06:20.876Z,31.80
2022-09-07T10:09:00.422Z,31.80
2022-09-07T10:14:42.884Z,31.80
2022-09-07T10:17:27.605Z,31.80
2022-09-07T10:20:02.444Z,31.90
2022-09-07T10:22:37.668Z,32.00
2022-09-07T10:25:44.274Z,32.10
2022-09-07T10:28:16.413Z,32.20
2022-09-07T10:31:15.102Z,32.40
2022-09-07T10:37:06.808Z,32.60
2022-09-07T10:39:40.398Z,32.60
2022-09-07T10:42:25.341Z,32.80
2022-09-07T10:45:19.812Z,32.90
2022-09-07T10:47:52.135Z,32.90
2022-09-07T10:50:35.613Z,32.90
2022-09-07T10:53:44.905Z,33.00
2022-09-07T10:56:26.043Z,33.00
2022-09-07T11:00:07.562Z,33.10
2022-09-07T11:05:48.679Z,33.10
2022-09-07T11:12:04.333Z,33.10
2022-09-07T11:14:49.689Z,33.10
2022-09-07T11:17:24.051Z,33.20
2022-09-07T11:20:03.454Z,33.20
2022-09-07T11:22:38.903Z,33.30
2022-09-07T11:25:32.280Z,33.30
2022-09-07T11:28:14.551Z,33.30
2022-09-07T11:30:54.555Z,33.40
2022-09-07T11:33:34.145Z,33.40
2022-09-07T11:36:12.037Z,33.40
2022-09-07T11:39:02.243Z,33.50
2022-09-07T11:41:34.260Z,33.50
2022-09-07T11:44:14.957Z,33.50
2022-09-07T11:47:02.319Z,33.50
2022-09-07T11:49:30.784Z,33.50
2022-09-07T11:52:36.378Z,33.50
2022-09-07T11:55:11.738Z,33.50
2022-09-07T11:58:22.870Z,33.40
2022-09-07T12:01:15.746Z,33.30
2022-09-07T12:03:53.800Z,32.90
2022-09-07T12:06:58.359Z,33.00
2022-09-07T12:10:23.421Z,32.90
2022-09-07T12:12:59.143Z,32.60
2022-09-07T12:15:56.072Z,32.40
2022-09-07T12:18:44.703Z,32.20
2022-09-07T12:21:39.539Z,32.00
2022-09-07T12:24:32.480Z,31.80
2022-09-07T12:27:09.918Z,31.60
2022-09-07T12:29:45.225Z,31.40
2022-09-07T12:34:59.947Z,31.10
2022-09-07T12:37:26.764Z,31.00
2022-09-07T12:40:30.523Z,30.90
2022-09-07T12:43:48.017Z,30.80
2022-09-07T12:46:34.898Z,30.70
2022-09-07T12:49:16.405Z,30.70
2022-09-07T12:52:28.727Z,30.60
2022-09-07T12:55:29.151Z,30.50
2022-09-07T12:58:23.090Z,30.50
2022-09-07T13:01:17.930Z,30.40
2022-09-07T13:04:28.646Z,30.40
2022-09-07T13:07:26.757Z,30.30
2022-09-07T13:10:03.901Z,30.30
2022-09-07T13:12:57.207Z,30.30
2022-09-07T13:15:42.630Z,30.20
2022-09-07T13:18:32.265Z,30.20
2022-09-07T13:21:08.324Z,30.10
2022-09-07T13:23:40.314Z,30.10
2022-09-07T13:26:11.902Z,30.00
2022-09-07T13:29:10.916Z,30.00
2022-09-07T13:32:00.188Z,30.00
2022-09-07T13:34:53.280Z,29.90
2022-09-07T13:37:25.242Z,29.80
2022-09-07T13:39:55.852Z,29.70
2022-09-07T13:42:31.889Z,29.80
2022-09-07T13:45:05.868Z,29.70
2022-09-07T13:48:02.381Z,29.60
2022-09-07T13:50:43.813Z,29.60
2022-09-07T13:53:54.529Z,29.50
2022-09-07T13:56:49.085Z,29.40
2022-09-07T13:59:23.753Z,29.30
2022-09-07T14:01:51.510Z,29.30
2022-09-07T14:04:44.454Z,29.30
2022-09-07T14:07:17.466Z,29.30
2022-09-07T14:09:44.336Z,29.30
2022-09-07T14:12:16.024Z,29.20
2022-09-07T14:14:42.917Z,29.20
2022-09-07T14:17:16.749Z,29.20
2022-09-07T14:19:52.248Z,29.20
2022-09-07T14:22:33.691Z,29.20
2022-09-07T14:25:04.782Z,29.10
2022-09-07T14:27:41.915Z,29.10
2022-09-07T14:30:24.028Z,28.90
2022-09-07T14:33:01.079Z,29.00
2022-09-07T14:35:39.912Z,29.00
2022-09-07T14:41:23.978Z,28.90
2022-09-07T14:43:57.721Z,28.90
2022-09-07T14:46:35.796Z,28.80
2022-09-07T14:49:21.673Z,28.80
2022-09-07T14:51:49.572Z,28.80
2022-09-07T14:54:29.273Z,28.70
2022-09-07T14:57:03.337Z,28.60
2022-09-07T14:59:45.910Z,28.60
2022-09-07T15:02:18.950Z,28.50
2022-09-07T15:04:53.059Z,28.50
2022-09-07T15:07:40.891Z,28.50
2022-09-07T15:10:23.535Z,28.40
2022-09-07T15:13:03.937Z,28.30
2022-09-07T15:15:33.332Z,28.30
2022-09-07T15:18:38.968Z,28.30
2022-09-07T15:21:09.173Z,28.30
2022-09-07T15:23:39.128Z,28.20
2022-09-07T15:26:09.313Z,28.20
2022-09-07T15:31:59.264Z,28.20
2022-09-07T15:34:20.723Z,28.20
2022-09-07T15:36:52.205Z,28.20
2022-09-07T15:39:20.513Z,28.20
2022-09-07T15:41:47.963Z,28.10
2022-09-07T15:44:25.227Z,28.10
2022-09-07T15:49:47.389Z,28.00
2022-09-07T15:52:19.675Z,27.90
2022-09-07T15:54:46.665Z,27.90
2022-09-07T16:00:05.215Z,27.80
2022-09-07T16:05:23.240Z,27.80
2022-09-07T16:10:39.811Z,27.70
2022-09-07T16:13:11.415Z,27.60
2022-09-07T16:15:49.777Z,27.60
2022-09-07T16:18:18.231Z,27.60
2022-09-07T16:20:52.469Z,27.60
2022-09-07T16:23:19.807Z,27.60
2022-09-07T16:26:04.183Z,27.50
2022-09-07T16:28:34.200Z,27.40
2022-09-07T16:31:11.275Z,27.50
2022-09-07T16:33:38.175Z,27.40
2022-09-07T16:36:16.003Z,27.40
2022-09-07T16:38:45.936Z,27.30
2022-09-07T16:41:31.667Z,27.30
2022-09-07T16:43:59.374Z,27.20
2022-09-07T16:46:30.680Z,27.10
2022-09-07T16:49:02.191Z,27.10
2022-09-07T16:51:33.765Z,27.00
2022-09-07T16:54:00.825Z,27.00
2022-09-07T16:56:32.265Z,27.00
2022-09-07T16:59:06.265Z,26.90
2022-09-07T17:01:36.411Z,26.80
2022-09-07T17:04:11.481Z,26.80
2022-09-07T17:06:39.867Z,26.70
2022-09-07T17:09:07.921Z,26.70
2022-09-07T17:11:38.929Z,26.60
2022-09-07T17:14:08.702Z,26.60
2022-09-07T17:16:40.910Z,26.50
2022-09-07T17:21:59.884Z,26.50
2022-09-07T17:24:32.493Z,26.40
2022-09-07T17:27:00.322Z,26.40
2022-09-07T17:29:30.487Z,26.30
2022-09-07T17:34:47.251Z,26.20
2022-09-07T17:37:14.145Z,26.20
2022-09-07T17:39:41.092Z,26.20
2022-09-07T17:42:08.044Z,26.10
2022-09-07T17:44:38.039Z,26.10
2022-09-07T17:47:05.866Z,26.00
2022-09-07T17:49:32.755Z,26.00
2022-09-07T17:52:02.204Z,26.00
2022-09-07T17:54:31.875Z,25.90
2022-09-07T17:56:58.811Z,25.90
2022-09-07T18:02:15.126Z,25.80
2022-09-07T18:04:44.527Z,25.80
2022-09-07T18:07:11.487Z,25.70
2022-09-07T18:09:38.437Z,25.60
2022-09-07T18:12:08.098Z,25.50
2022-09-07T18:14:35.012Z,25.50
2022-09-07T18:17:02.017Z,25.40
2022-09-07T18:19:28.917Z,25.30
2022-09-07T18:21:55.731Z,25.20
2022-09-07T18:24:24.475Z,25.20
2022-09-07T18:26:55.782Z,25.10
2022-09-07T18:29:32.416Z,25.10
2022-09-07T18:32:08.746Z,25.00
2022-09-07T18:34:38.486Z,24.90
2022-09-07T18:37:06.025Z,24.80
2022-09-07T18:39:35.138Z,24.80
2022-09-07T18:42:02.099Z,24.70
2022-09-07T18:47:27.662Z,24.60
2022-09-07T18:49:56.133Z,24.60
2022-09-07T18:55:10.376Z,24.50
2022-09-07T18:57:39.704Z,24.40
2022-09-07T19:00:11.301Z,24.40
2022-09-07T19:02:41.392Z,24.30
2022-09-07T19:07:59.445Z,24.20
2022-09-07T19:10:31.192Z,24.20
2022-09-07T19:13:02.643Z,24.20
2022-09-07T19:15:31.605Z,24.10
2022-09-07T19:18:01.119Z,24.10
2022-09-07T19:20:29.255Z,24.10
2022-09-07T19:22:58.924Z,24.10
2022-09-07T19:25:25.916Z,24.10
2022-09-07T19:27:59.921Z,24.10
2022-09-07T19:30:28.066Z,24.00
2022-09-07T19:33:00.728Z,24.00
2022-09-07T19:35:30.880Z,24.00
2022-09-07T19:37:57.995Z,24.00
2022-09-07T19:40:24.932Z,23.90
2022-09-07T19:42:56.569Z,23.90
2022-09-07T19:45:25.940Z,23.90
2022-09-07T19:47:52.787Z,23.90
2022-09-07T19:50:22.340Z,23.80
2022-09-07T19:52:49.633Z,23.80
2022-09-07T19:55:17.180Z,23.80
2022-09-07T19:57:51.311Z,23.70
2022-09-07T20:00:18.371Z,23.70
2022-09-07T20:02:50.169Z,23.70
2022-09-07T20:05:18.659Z,23.60
2022-09-07T20:07:47.855Z,23.60
2022-09-07T20:10:14.967Z,23.60
2022-09-07T20:12:44.331Z,23.60
2022-09-07T20:15:16.180Z,23.60
2022-09-07T20:17:43.017Z,23.50
2022-09-07T20:20:10.314Z,23.50
2022-09-07T20:22:37.157Z,23.50
2022-09-07T20:25:12.987Z,23.40
2022-09-07T20:27:40.491Z,23.40
2022-09-07T20:30:08.253Z,23.30
2022-09-07T20:32:35.056Z,23.30
2022-09-07T20:35:02.029Z,23.30
2022-09-07T20:37:28.911Z,23.30
2022-09-07T20:39:55.811Z,23.30
2022-09-07T20:42:24.885Z,23.20
2022-09-07T20:44:51.698Z,23.20
2022-09-07T20:47:21.109Z,23.20
2022-09-07T20:49:52.176Z,23.20
2022-09-07T20:52:19.061Z,23.10
2022-09-07T20:54:48.147Z,23.10
2022-09-07T20:57:15.031Z,23.10
2022-09-07T20:59:41.937Z,23.10
2022-09-07T21:02:11.920Z,23.10
2022-09-07T21:04:38.847Z,23.00
2022-09-07T21:07:05.930Z,23.00
2022-09-07T21:09:37.297Z,23.00
2022-09-07T21:12:04.175Z,23.00
2022-09-07T21:14:31.056Z,22.80
2022-09-07T21:17:00.380Z,22.90
2022-09-07T21:19:27.297Z,22.90
2022-09-07T21:21:58.708Z,22.90
2022-09-07T21:24:25.687Z,22.90
2022-09-07T21:26:52.606Z,22.90
2022-09-07T21:29:24.717Z,22.90
2022-09-07T21:31:55.134Z,22.90
2022-09-07T21:34:23.180Z,22.80
2022-09-07T21:36:50.482Z,22.80
2022-09-07T21:39:17.965Z,22.80
2022-09-07T21:41:45.314Z,22.80
2022-09-07T21:44:14.908Z,22.80
2022-09-07T21:46:43.272Z,22.80
2022-09-07T21:49:10.472Z,22.80
2022-09-07T21:51:39.939Z,22.70
2022-09-07T21:54:08.895Z,22.70
2022-09-07T21:56:43.151Z,22.70
2022-09-07T21:59:15.398Z,22.70
2022-09-07T22:01:44.806Z,22.70
2022-09-07T22:04:14.707Z,22.60
2022-09-07T22:06:41.610Z,22.60
2022-09-07T22:09:13.043Z,22.60
2022-09-07T22:11:45.900Z,22.60
2022-09-07T22:14:15.931Z,22.50
2022-09-07T22:16:44.896Z,22.50
2022-09-07T22:19:11.788Z,22.50
2022-09-07T22:21:38.654Z,22.50
2022-09-07T22:24:08.045Z,22.50
2022-09-07T22:26:40.067Z,22.40
2022-09-07T22:29:08.936Z,22.40
2022-09-07T22:31:38.198Z,22.40
2022-09-07T22:34:10.195Z,22.30
2022-09-07T22:36:43.651Z,22.30
2022-09-07T22:39:17.423Z,22.20
2022-09-07T22:41:46.147Z,22.20
2022-09-07T22:44:19.850Z,22.20
2022-09-07T22:46:47.636Z,22.20
2022-09-07T22:49:17.774Z,22.10
2022-09-07T22:51:47.172Z,22.10
2022-09-07T22:54:14.242Z,22.10
2022-09-07T22:56:41.350Z,22.10
2022-09-07T22:59:11.774Z,22.10
2022-09-07T23:01:39.270Z,22.00
2022-09-07T23:04:10.193Z,22.00
2022-09-07T23:06:40.438Z,22.00
2022-09-07T23:09:17.390Z,22.00
2022-09-07T23:11:45.918Z,22.00
2022-09-07T23:14:16.836Z,22.00
2022-09-07T23:16:44.750Z,22.00
2022-09-07T23:19:14.845Z,22.00
2022-09-07T23:21:42.935Z,22.00
2022-09-07T23:24:17.252Z,22.00
2022-09-07T23:26:44.601Z,21.90
2022-09-07T23:29:18.058Z,22.00
2022-09-07T23:31:48.198Z,21.90
2022-09-07T23:34:15.199Z,21.90
2022-09-07T23:36:44.401Z,21.90
2022-09-07T23:39:14.507Z,21.90
2022-09-07T23:41:43.803Z,21.90
2022-09-07T23:44:10.973Z,21.90
2022-09-07T23:46:37.890Z,21.90
2022-09-07T23:49:05.361Z,21.90
2022-09-07T23:51:32.258Z,21.90
2022-09-07T23:53:59.323Z,21.90
2022-09-07T23:56:26.271Z,21.90
2022-09-07T23:58:56.173Z,21.90
